Time;durP1;ratioP1;P1;durP2;ratioP2;P2;SDS_P1;SDS_P2;PMS_P1;PMS_P2;Temp;Humidity;BMP_temperature;BMP_pressure;BME280_temperature;BME280_humidity;BME280_pressure;Samples;Min_cycle;Max_cycle;Signal;HPM_P1;HPM_P2
2021/01/26 00:01:35;;;;;;;0.95;0.93;;;5.00;52.50;;;;;;5099061;28;20062;-80
2021/01/26 00:04:01;;;;;;;0.75;0.75;;;5.10;52.00;;;;;;5079384;28;20027;-80
2021/01/26 00:06:27;;;;;;;0.95;0.80;;;5.10;52.80;;;;;;5101479;28;21362;-79
2021/01/26 00:08:52;;;;;;;1.10;0.80;;;5.10;52.50;;;;;;5060099;28;20182;-80
2021/01/26 00:11:18;;;;;;;1.00;0.80;;;5.10;51.60;;;;;;5069211;28;20028;-80
2021/01/26 00:13:44;;;;;;;0.80;0.80;;;5.10;52.30;;;;;;5089957;28;20074;-80
2021/01/26 00:16:09;;;;;;;1.13;0.90;;;5.00;52.90;;;;;;5088269;28;20020;-80
2021/01/26 00:18:35;;;;;;;1.02;1.00;;;5.00;54.00;;;;;;5077620;28;20030;-80
2021/01/26 00:21:01;;;;;;;1.23;1.13;;;4.90;53.80;;;;;;5095525;28;20027;-80
2021/01/26 00:23:27;;;;;;;1.00;1.00;;;4.80;55.00;;;;;;5067130;28;20087;-80
2021/01/26 00:25:53;;;;;;;0.80;0.80;;;4.80;54.70;;;;;;5074274;28;20027;-80
2021/01/26 00:28:19;;;;;;;1.00;0.90;;;4.80;53.60;;;;;;5065859;28;20115;-80
2021/01/26 00:30:44;;;;;;;0.80;0.80;;;4.80;52.90;;;;;;5065974;28;20032;-80
2021/01/26 00:33:14;;;;;;;0.80;0.75;;;4.90;52.30;;;;;;5057500;28;20025;-80
2021/01/26 00:35:41;;;;;;;1.30;1.05;;;4.90;51.90;;;;;;5076225;28;20035;-80
2021/01/26 00:38:06;;;;;;;1.45;1.08;;;4.90;52.70;;;;;;5077378;28;20020;-80
2021/01/26 00:40:32;;;;;;;0.90;0.90;;;4.90;52.80;;;;;;5113596;28;20083;-80
2021/01/26 00:42:59;;;;;;;2.83;0.93;;;4.80;53.50;;;;;;5106514;28;20023;-80
2021/01/26 00:45:26;;;;;;;2.03;0.70;;;4.80;53.60;;;;;;5097545;28;20472;-80
2021/01/26 00:47:52;;;;;;;0.73;0.68;;;4.80;52.60;;;;;;5115616;28;20058;-80
2021/01/26 00:50:19;;;;;;;0.70;0.70;;;4.90;52.60;;;;;;5097452;28;20055;-80
2021/01/26 00:52:45;;;;;;;0.93;0.85;;;4.80;51.80;;;;;;5082938;28;20085;-80
2021/01/26 00:55:11;;;;;;;0.80;0.80;;;4.80;52.00;;;;;;5077186;28;20028;-80
2021/01/26 00:57:39;;;;;;;1.30;0.63;;;4.90;51.30;;;;;;5071831;28;20031;-80
2021/01/26 01:00:07;;;;;;;0.60;0.60;;;4.90;51.30;;;;;;5074709;28;20040;-80
2021/01/26 01:02:33;;;;;;;0.40;0.40;;;4.90;51.10;;;;;;5056905;28;20020;-80
2021/01/26 01:04:59;;;;;;;0.60;0.60;;;4.90;51.20;;;;;;5056974;28;20025;-80
2021/01/26 01:07:25;;;;;;;0.88;0.80;;;5.00;51.10;;;;;;5078895;28;20598;-81
2021/01/26 01:09:50;;;;;;;0.77;0.60;;;5.00;51.70;;;;;;5094839;28;20055;-80
2021/01/26 01:12:16;;;;;;;0.68;0.68;;;4.90;51.40;;;;;;5057113;28;20428;-80
2021/01/26 01:14:42;;;;;;;0.80;0.80;;;5.00;51.40;;;;;;5056726;28;20081;-80
2021/01/26 01:17:09;;;;;;;0.70;0.70;;;5.00;50.30;;;;;;5060529;28;20157;-80
2021/01/26 01:19:34;;;;;;;0.70;0.70;;;5.10;50.50;;;;;;5075476;28;20046;-80
2021/01/26 01:22:00;;;;;;;1.30;0.85;;;5.10;49.90;;;;;;5068750;28;20016;-80
2021/01/26 01:24:26;;;;;;;1.45;0.80;;;5.20;49.40;;;;;;5038722;28;20049;-80
2021/01/26 01:26:51;;;;;;;0.50;0.50;;;5.20;49.80;;;;;;5042376;28;20016;-80
2021/01/26 01:29:18;;;;;;;0.75;0.75;;;5.10;50.40;;;;;;5067591;28;20028;-80
2021/01/26 01:31:44;;;;;;;0.90;0.75;;;5.10;50.80;;;;;;5054040;28;20159;-80
2021/01/26 01:34:09;;;;;;;0.60;0.60;;;5.10;50.30;;;;;;5036246;28;20099;-80
2021/01/26 01:36:36;;;;;;;0.63;0.63;;;5.10;49.90;;;;;;5056575;28;20025;-79
2021/01/26 01:39:04;;;;;;;0.55;0.55;;;5.10;49.80;;;;;;5057143;28;20119;-79
2021/01/26 01:41:35;;;;;;;1.38;0.70;;;5.10;50.10;;;;;;5073084;28;20020;-79
2021/01/26 01:44:01;;;;;;;0.63;0.57;;;5.10;50.20;;;;;;5073883;28;20147;-79
2021/01/26 01:46:31;;;;;;;0.68;0.68;;;5.10;50.20;;;;;;5055867;28;20700;-79
2021/01/26 01:49:01;;;;;;;0.45;0.45;;;5.10;50.60;;;;;;5052504;28;20016;-79
2021/01/26 01:51:27;;;;;;;4.80;0.90;;;5.10;50.70;;;;;;5055834;28;20017;-79
2021/01/26 01:54:03;;;;;;;0.60;0.60;;;5.00;51.20;;;;;;5055714;28;20020;-79
2021/01/26 01:56:44;;;;;;;1.05;0.60;;;5.00;51.70;;;;;;5055306;28;20059;-79
2021/01/26 01:59:16;;;;;;;0.65;0.65;;;4.90;53.70;;;;;;5063638;28;20008;-80
2021/01/26 02:01:42;;;;;;;1.70;0.70;;;4.80;54.50;;;;;;5055658;28;20024;-79
2021/01/26 02:04:13;;;;;;;0.70;0.70;;;4.70;56.50;;;;;;5055800;28;20025;-80
2021/01/26 02:06:42;;;;;;;0.60;0.60;;;4.70;55.60;;;;;;5055582;28;20033;-80
2021/01/26 02:09:10;;;;;;;0.80;0.80;;;4.60;57.10;;;;;;5045641;28;20430;-79
2021/01/26 02:11:35;;;;;;;1.67;1.20;;;4.50;56.90;;;;;;5066814;28;20017;-79
2021/01/26 02:14:02;;;;;;;2.17;0.70;;;4.50;56.80;;;;;;5055465;28;20478;-80
2021/01/26 02:16:42;;;;;;;1.90;0.93;;;4.40;56.20;;;;;;5073402;28;20029;-80
2021/01/26 02:19:33;;;;;;;0.68;0.68;;;4.40;55.40;;;;;;5040537;28;20057;-80
2021/01/26 02:21:58;;;;;;;0.70;0.70;;;4.40;54.30;;;;;;5035502;28;20040;-79
2021/01/26 02:25:02;;;;;;;0.70;0.70;;;4.40;53.30;;;;;;5049062;28;20041;-79
2021/01/26 02:27:49;;;;;;;0.45;0.45;;;4.50;52.60;;;;;;5051645;28;20029;-79
2021/01/26 02:30:31;;;;;;;0.60;0.60;;;4.60;50.60;;;;;;5076103;28;20500;-79
2021/01/26 02:33:21;;;;;;;0.50;0.50;;;4.60;51.00;;;;;;5089188;28;20389;-80
2021/01/26 02:36:26;;;;;;;0.73;0.63;;;4.60;51.20;;;;;;5092111;28;20039;-80
2021/01/26 02:39:33;;;;;;;0.88;0.65;;;4.60;52.00;;;;;;5054395;28;20428;-79
2021/01/26 02:42:10;;;;;;;0.43;0.43;;;4.60;52.00;;;;;;5078234;28;20510;-80
2021/01/26 02:44:51;;;;;;;0.47;0.40;;;4.50;52.40;;;;;;5053102;28;20546;-80
2021/01/26 02:47:45;;;;;;;0.60;0.60;;;4.60;50.30;;;;;;5051552;28;20021;-79
2021/01/26 02:50:33;;;;;;;0.80;0.68;;;4.60;49.90;;;;;;5051704;28;20026;-80
2021/01/26 02:53:19;;;;;;;0.50;0.50;;;4.60;50.00;;;;;;5051252;28;20472;-79
2021/01/26 02:55:59;;;;;;;1.10;0.40;;;4.70;49.00;;;;;;5052805;28;20021;-80
2021/01/26 02:59:02;;;;;;;0.50;0.50;;;4.70;49.00;;;;;;5051414;28;20079;-79
2021/01/26 03:01:39;;;;;;;0.40;0.40;;;4.80;48.20;;;;;;5051461;28;20488;-79
2021/01/26 03:04:17;;;;;;;0.40;0.40;;;4.90;47.60;;;;;;5052727;28;20515;-79
2021/01/26 03:06:47;;;;;;;0.52;0.52;;;4.80;47.90;;;;;;5051319;28;20029;-79
2021/01/26 03:09:29;;;;;;;0.38;0.38;;;4.90;47.40;;;;;;5052788;28;20033;-79
2021/01/26 03:12:19;;;;;;;0.50;0.47;;;5.00;47.30;;;;;;5051421;28;20033;-79
2021/01/26 03:14:53;;;;;;;0.40;0.40;;;5.00;47.20;;;;;;5052727;28;20033;-79
2021/01/26 03:17:28;;;;;;;0.40;0.40;;;5.00;47.40;;;;;;5057114;28;20036;-79
2021/01/26 03:19:56;;;;;;;0.35;0.35;;;5.00;48.00;;;;;;5070136;28;20033;-80
2021/01/26 03:22:26;;;;;;;0.40;0.40;;;4.90;48.50;;;;;;5073107;28;20086;-79
2021/01/26 03:24:55;;;;;;;0.50;0.50;;;4.90;48.20;;;;;;5074635;28;20020;-80
2021/01/26 03:27:30;;;;;;;0.30;0.30;;;4.90;48.80;;;;;;5074544;28;20035;-80
2021/01/26 03:29:58;;;;;;;1.90;0.60;;;4.80;49.10;;;;;;5074598;28;20028;-79
2021/01/26 03:32:30;;;;;;;0.70;0.70;;;4.80;49.70;;;;;;5074702;28;20089;-80
2021/01/26 03:34:56;;;;;;;0.55;0.50;;;4.70;49.70;;;;;;5074533;28;20024;-79
2021/01/26 03:37:22;;;;;;;0.52;0.52;;;4.70;50.40;;;;;;5092447;28;20024;-79
2021/01/26 03:39:48;;;;;;;0.32;0.30;;;4.70;50.30;;;;;;5092557;28;20020;-80
2021/01/26 03:42:13;;;;;;;0.47;0.47;;;4.70;50.30;;;;;;5074581;28;20121;-80
2021/01/26 03:44:39;;;;;;;0.60;0.60;;;4.70;50.10;;;;;;5074340;28;20512;-79
2021/01/26 03:47:10;;;;;;;0.80;0.70;;;4.60;50.30;;;;;;5074274;28;20056;-79
2021/01/26 03:50:03;;;;;;;0.50;0.50;;;4.60;50.90;;;;;;5091324;28;20049;-79
2021/01/26 03:52:53;;;;;;;0.60;0.60;;;4.60;51.50;;;;;;5112580;28;20028;-79
2021/01/26 03:55:54;;;;;;;0.65;0.60;;;4.50;51.10;;;;;;5094510;28;20031;-79
2021/01/26 03:58:42;;;;;;;0.60;0.57;;;4.50;51.00;;;;;;5076173;28;20028;-80
2021/01/26 04:01:31;;;;;;;0.63;0.63;;;4.50;50.90;;;;;;5074348;28;20072;-79
2021/01/26 04:04:02;;;;;;;1.65;0.52;;;4.50;50.60;;;;;;5074271;28;20088;-79
2021/01/26 04:06:46;;;;;;;0.68;0.60;;;4.50;50.60;;;;;;5094597;28;20043;-79
2021/01/26 04:09:22;;;;;;;0.95;0.60;;;4.50;51.00;;;;;;5078073;28;20020;-79
2021/01/26 04:12:17;;;;;;;1.65;0.85;;;4.50;50.50;;;;;;5078046;28;20052;-79
2021/01/26 04:14:50;;;;;;;0.60;0.60;;;4.50;50.20;;;;;;5065541;28;20418;-79
2021/01/26 04:17:21;;;;;;;0.40;0.40;;;4.50;50.20;;;;;;5095829;28;20020;-79
2021/01/26 04:19:57;;;;;;;0.68;0.68;;;4.50;50.00;;;;;;5114643;28;20034;-79
2021/01/26 04:22:24;;;;;;;0.70;0.70;;;4.60;50.10;;;;;;5056971;28;20604;-80
2021/01/26 04:24:49;;;;;;;0.50;0.50;;;4.60;50.10;;;;;;5055916;28;20029;-80
2021/01/26 04:27:23;;;;;;;0.50;0.50;;;4.50;50.40;;;;;;5054095;28;20032;-79
2021/01/26 04:29:49;;;;;;;0.50;0.50;;;4.50;50.40;;;;;;5055574;28;20470;-80
2021/01/26 04:32:17;;;;;;;0.45;0.45;;;4.50;50.60;;;;;;5074346;28;20032;-79
2021/01/26 04:34:43;;;;;;;0.40;0.40;;;4.50;50.40;;;;;;5094575;28;20034;-80
2021/01/26 04:37:09;;;;;;;0.60;0.55;;;4.60;49.80;;;;;;5094392;28;20027;-79
2021/01/26 04:39:34;;;;;;;0.63;0.47;;;4.60;50.20;;;;;;5094132;28;20028;-80
2021/01/26 04:42:03;;;;;;;0.40;0.40;;;4.50;50.50;;;;;;5095461;28;20012;-79
2021/01/26 04:44:48;;;;;;;1.17;0.38;;;4.50;50.00;;;;;;5095659;28;20012;-79
2021/01/26 04:47:19;;;;;;;0.40;0.40;;;4.50;50.00;;;;;;5095382;28;20028;-80
2021/01/26 04:50:07;;;;;;;0.40;0.40;;;4.60;49.70;;;;;;5089776;28;20032;-80
2021/01/26 04:53:10;;;;;;;0.60;0.60;;;4.60;49.90;;;;;;5093846;28;20019;-80
2021/01/26 04:55:52;;;;;;;1.05;0.50;;;4.60;49.90;;;;;;5093972;28;20028;-79
2021/01/26 04:58:39;;;;;;;0.82;0.43;;;4.50;50.20;;;;;;5094964;28;20028;-79
2021/01/26 05:01:31;;;;;;;0.47;0.47;;;4.50;50.30;;;;;;5092472;28;20040;-80
2021/01/26 05:04:00;;;;;;;0.40;0.40;;;4.50;50.10;;;;;;5092719;28;20024;-79
2021/01/26 05:06:39;;;;;;;0.60;0.60;;;4.50;50.40;;;;;;5092564;28;20065;-79
2021/01/26 05:09:12;;;;;;;0.50;0.50;;;4.50;49.80;;;;;;5093749;28;20020;-80
2021/01/26 05:11:42;;;;;;;0.47;0.35;;;4.50;50.20;;;;;;5092676;28;20028;-79
2021/01/26 05:14:20;;;;;;;0.63;0.40;;;4.50;50.20;;;;;;5092627;28;20031;-79
2021/01/26 05:16:59;;;;;;;0.50;0.50;;;4.50;50.10;;;;;;5092344;28;20024;-80
2021/01/26 05:19:38;;;;;;;0.93;0.60;;;4.50;50.60;;;;;;5077826;28;20032;-80
2021/01/26 05:22:18;;;;;;;0.55;0.55;;;4.50;50.90;;;;;;5074011;28;20065;-80
2021/01/26 05:24:59;;;;;;;0.63;0.63;;;4.40;51.10;;;;;;5054992;28;20028;-80
2021/01/26 05:27:25;;;;;;;0.40;0.40;;;4.40;51.20;;;;;;5061292;28;20037;-80
2021/01/26 05:29:51;;;;;;;0.63;0.63;;;4.40;51.20;;;;;;5073031;28;20035;-80
2021/01/26 05:32:16;;;;;;;0.68;0.68;;;4.30;51.40;;;;;;5073105;28;20051;-79
2021/01/26 05:34:42;;;;;;;0.40;0.40;;;4.30;51.60;;;;;;5068076;28;20024;-79
2021/01/26 05:37:13;;;;;;;0.50;0.50;;;4.30;51.80;;;;;;5066806;28;20021;-80
2021/01/26 05:39:54;;;;;;;0.65;0.50;;;4.30;51.60;;;;;;5073204;28;20046;-79
2021/01/26 05:42:23;;;;;;;0.50;0.50;;;4.20;51.70;;;;;;5072944;28;20028;-79
2021/01/26 05:44:58;;;;;;;0.50;0.50;;;4.20;51.80;;;;;;5073390;28;20028;-79
2021/01/26 05:47:33;;;;;;;0.50;0.30;;;4.20;51.40;;;;;;5043616;28;20227;-79
2021/01/26 05:50:00;;;;;;;0.57;0.57;;;4.30;51.60;;;;;;5052556;28;20021;-79
2021/01/26 05:52:38;;;;;;;0.97;0.40;;;4.20;51.40;;;;;;5054122;28;20025;-79
2021/01/26 05:55:21;;;;;;;0.80;0.43;;;4.30;51.30;;;;;;5060353;28;20004;-79
2021/01/26 05:57:48;;;;;;;;;;;4.20;51.60;;;;;;5072856;28;20478;-79
2021/01/26 06:00:21;;;;;;;0.53;0.53;;;4.20;51.80;;;;;;5072472;28;19942;-79
2021/01/26 06:03:04;;;;;;;0.40;0.40;;;4.10;52.10;;;;;;5073554;28;20025;-79
2021/01/26 06:05:29;;;;;;;0.65;0.65;;;4.10;52.00;;;;;;5073801;28;20043;-79
2021/01/26 06:08:10;;;;;;;0.60;0.60;;;4.10;52.20;;;;;;5072424;28;20467;-79
2021/01/26 06:10:38;;;;;;;0.50;0.50;;;4.10;51.30;;;;;;5074038;28;20056;-79
2021/01/26 06:13:04;;;;;;;0.30;0.30;;;4.20;50.70;;;;;;5072162;28;20090;-79
2021/01/26 06:15:34;;;;;;;1.83;0.50;;;4.30;49.70;;;;;;5056170;28;20037;-79
2021/01/26 06:18:16;;;;;;;0.30;0.30;;;4.30;50.30;;;;;;5053021;28;20116;-79
2021/01/26 06:20:43;;;;;;;0.73;0.38;;;4.30;50.40;;;;;;5072187;28;20024;-79
2021/01/26 06:23:29;;;;;;;0.43;0.43;;;4.20;50.50;;;;;;5074394;28;20055;-79
2021/01/26 06:25:59;;;;;;;2.97;0.50;;;4.30;50.10;;;;;;5072392;28;20021;-79
2021/01/26 06:28:59;;;;;;;0.40;0.40;;;4.30;49.40;;;;;;5074836;28;20027;-79
2021/01/26 06:31:43;;;;;;;0.50;0.50;;;4.40;49.20;;;;;;5074465;28;20034;-80
2021/01/26 06:34:25;;;;;;;0.50;0.50;;;4.40;49.10;;;;;;5074797;28;20027;-80
2021/01/26 06:37:19;;;;;;;0.88;0.50;;;4.40;49.00;;;;;;5051800;28;20070;-80
2021/01/26 06:40:04;;;;;;;0.30;0.30;;;4.50;48.60;;;;;;5079312;28;20035;-80
2021/01/26 06:42:55;;;;;;;0.43;0.43;;;4.40;48.80;;;;;;5092852;28;20023;-80
2021/01/26 06:45:45;;;;;;;0.40;0.40;;;4.50;48.40;;;;;;5074816;28;20024;-80
2021/01/26 06:48:30;;;;;;;0.30;0.30;;;4.50;47.70;;;;;;5093178;28;20030;-80
2021/01/26 06:51:06;;;;;;;0.53;0.53;;;4.60;47.60;;;;;;5072287;28;20113;-80
2021/01/26 06:53:56;;;;;;;0.22;0.22;;;4.60;47.00;;;;;;5055385;28;20024;-79
2021/01/26 06:56:30;;;;;;;0.40;0.40;;;4.60;47.20;;;;;;5055277;28;20442;-80
2021/01/26 06:59:14;;;;;;;0.30;0.30;;;4.70;47.40;;;;;;5055208;28;20052;-80
2021/01/26 07:02:08;;;;;;;0.53;0.53;;;4.60;47.40;;;;;;5066569;28;20043;-79
2021/01/26 07:04:45;;;;;;;0.60;0.50;;;4.50;47.80;;;;;;5071056;28;20036;-79
2021/01/26 07:07:33;;;;;;;0.30;0.30;;;4.60;47.40;;;;;;5074472;28;20059;-79
2021/01/26 07:10:13;;;;;;;1.10;0.30;;;4.60;47.30;;;;;;5093120;28;20020;-79
2021/01/26 07:12:57;;;;;;;0.47;0.47;;;4.60;46.90;;;;;;5093530;28;20070;-80
2021/01/26 07:15:47;;;;;;;0.38;0.38;;;4.60;47.10;;;;;;5075178;28;20027;-79
2021/01/26 07:18:32;;;;;;;0.73;0.52;;;4.60;47.30;;;;;;5075041;28;20028;-80
2021/01/26 07:21:15;;;;;;;0.43;0.43;;;4.50;47.60;;;;;;5066536;28;20033;-80
2021/01/26 07:24:18;;;;;;;0.40;0.40;;;4.50;47.90;;;;;;5074294;28;20040;-80
2021/01/26 07:27:01;;;;;;;0.20;0.20;;;4.50;47.80;;;;;;5057706;28;20036;-80
2021/01/26 07:29:55;;;;;;;0.65;0.30;;;4.60;47.20;;;;;;5075577;28;20021;-78
2021/01/26 07:32:34;;;;;;;0.43;0.43;;;4.60;47.10;;;;;;5078270;28;20102;-78
2021/01/26 07:35:12;;;;;;;0.57;0.43;;;4.70;47.00;;;;;;5092286;28;20040;-78
2021/01/26 07:37:57;;;;;;;0.30;0.30;;;4.70;47.40;;;;;;5093300;28;20031;-78
2021/01/26 07:40:51;;;;;;;0.30;0.30;;;4.70;47.00;;;;;;5093673;28;20027;-79
2021/01/26 07:43:37;;;;;;;0.57;0.35;;;4.80;47.00;;;;;;5078871;28;20557;-78
2021/01/26 07:46:21;;;;;;;0.40;0.40;;;4.80;47.10;;;;;;5096920;28;20020;-78
2021/01/26 07:49:09;;;;;;;0.47;0.40;;;4.90;46.90;;;;;;5078586;28;20036;-78
2021/01/26 07:51:40;;;;;;;2.55;0.63;;;4.90;47.30;;;;;;5078660;28;20062;-79
2021/01/26 07:54:27;;;;;;;0.30;0.30;;;4.90;46.40;;;;;;5078732;28;20020;-78
2021/01/26 07:56:57;;;;;;;1.10;0.47;;;5.00;47.20;;;;;;5095792;28;20088;-80
2021/01/26 07:59:27;;;;;;;0.47;0.47;;;5.00;47.10;;;;;;5072896;28;20036;-79
2021/01/26 08:01:59;;;;;;;0.50;0.50;;;5.10;46.70;;;;;;5087498;28;20110;-79
2021/01/26 08:04:36;;;;;;;0.57;0.57;;;5.10;46.80;;;;;;5089314;28;20039;-78
2021/01/26 08:07:02;;;;;;;0.73;0.50;;;5.10;46.80;;;;;;5086784;28;20032;-79
2021/01/26 08:09:39;;;;;;;0.40;0.40;;;5.20;46.50;;;;;;5090986;28;20024;-80
2021/01/26 08:12:17;;;;;;;0.60;0.60;;;5.20;46.70;;;;;;5076688;28;20549;-79
2021/01/26 08:14:52;;;;;;;1.67;0.68;;;5.20;46.40;;;;;;5076431;28;20028;-79
2021/01/26 08:17:27;;;;;;;1.73;1.02;;;5.30;45.60;;;;;;5070337;28;20632;-79
2021/01/26 08:20:06;;;;;;;1.08;0.90;;;5.40;45.10;;;;;;5075891;28;20454;-79
2021/01/26 08:22:33;;;;;;;1.10;1.10;;;5.50;44.20;;;;;;5069009;28;20039;-79
2021/01/26 08:25:01;;;;;;;1.00;1.00;;;5.60;44.20;;;;;;5086414;28;20029;-79
2021/01/26 08:27:50;;;;;;;1.92;0.55;;;5.60;45.00;;;;;;5073978;28;20032;-79
2021/01/26 08:30:20;;;;;;;0.55;0.55;;;5.70;44.50;;;;;;5055803;28;20119;-78
2021/01/26 08:33:03;;;;;;;0.50;0.50;;;5.70;43.40;;;;;;5077971;28;20553;-78
2021/01/26 08:35:33;;;;;;;0.50;0.50;;;5.70;43.60;;;;;;5074911;28;20059;-79
2021/01/26 08:38:00;;;;;;;0.43;0.43;;;5.90;46.00;;;;;;5067340;28;20400;-79
2021/01/26 08:40:26;;;;;;;0.80;0.80;;;5.90;43.70;;;;;;5076196;28;20024;-80
2021/01/26 08:43:02;;;;;;;0.85;0.85;;;5.90;43.60;;;;;;5070195;28;20024;-79
2021/01/26 08:45:28;;;;;;;1.05;1.00;;;5.90;44.00;;;;;;5059894;28;20020;-79
2021/01/26 08:48:03;;;;;;;0.90;0.90;;;5.90;44.20;;;;;;5094723;28;20031;-79
2021/01/26 08:50:35;;;;;;;1.00;0.95;;;5.90;44.80;;;;;;5076117;28;20513;-79
2021/01/26 08:53:38;;;;;;;1.50;1.40;;;5.90;44.60;;;;;;5072246;28;20482;-80
2021/01/26 08:56:22;;;;;;;1.50;1.30;;;6.00;43.90;;;;;;5034622;28;20036;-79
2021/01/26 08:58:53;;;;;;;1.48;1.30;;;6.00;43.80;;;;;;5094374;28;20036;-77
2021/01/26 09:01:22;;;;;;;1.55;1.30;;;6.00;44.10;;;;;;5065331;28;20043;-79
2021/01/26 09:04:11;;;;;;;2.55;1.67;;;6.00;44.80;;;;;;5071601;28;20062;-79
2021/01/26 09:06:44;;;;;;;1.88;1.40;;;6.00;44.50;;;;;;5065813;28;20032;-79
2021/01/26 09:09:10;;;;;;;1.77;1.38;;;6.10;44.60;;;;;;5067019;28;20028;-79
2021/01/26 09:11:44;;;;;;;1.25;1.15;;;6.20;43.70;;;;;;5062587;28;20032;-79
2021/01/26 09:14:44;;;;;;;3.05;1.73;;;6.30;42.70;;;;;;5094040;28;20382;-79
2021/01/26 09:17:20;;;;;;;1.30;0.98;;;6.40;43.40;;;;;;5075714;28;20020;-79
2021/01/26 09:19:50;;;;;;;0.60;0.60;;;6.50;42.80;;;;;;5101325;28;20016;-80
2021/01/26 09:22:25;;;;;;;1.25;1.10;;;6.60;41.00;;;;;;5067612;28;20027;-79
2021/01/26 09:25:06;;;;;;;0.70;0.70;;;6.60;41.40;;;;;;5073529;28;20039;-78
2021/01/26 09:27:34;;;;;;;0.57;0.57;;;6.70;41.10;;;;;;5087391;28;20031;-79
2021/01/26 09:30:18;;;;;;;0.50;0.50;;;6.70;40.70;;;;;;5075254;28;20024;-79
2021/01/26 09:32:57;;;;;;;0.60;0.60;;;6.70;41.10;;;;;;5067707;28;20446;-79
2021/01/26 09:35:25;;;;;;;1.13;1.13;;;6.70;39.20;;;;;;5060658;28;20036;-79
2021/01/26 09:38:08;;;;;;;3.33;2.13;;;6.70;38.90;;;;;;5078485;28;20519;-79
2021/01/26 09:40:35;;;;;;;9.98;5.22;;;6.80;40.00;;;;;;5089669;28;20024;-78
2021/01/26 09:43:23;;;;;;;2.60;2.40;;;6.70;40.60;;;;;;5088704;28;20414;-79
2021/01/26 09:45:54;;;;;;;1.95;0.95;;;6.80;39.40;;;;;;5060905;28;20027;-79
2021/01/26 09:48:32;;;;;;;1.83;1.73;;;6.90;39.40;;;;;;5076901;28;20035;-79
2021/01/26 09:51:11;;;;;;;2.35;2.15;;;6.90;39.40;;;;;;5059341;28;20028;-79
2021/01/26 09:53:42;;;;;;;3.10;1.42;;;6.90;39.90;;;;;;5081535;28;20497;-78
2021/01/26 09:56:10;;;;;;;0.90;0.90;;;7.00;39.20;;;;;;5074598;28;20032;-78
2021/01/26 09:58:38;;;;;;;1.13;1.00;;;7.00;39.10;;;;;;5057010;28;20028;-78
2021/01/26 10:01:07;;;;;;;0.80;0.80;;;7.10;39.40;;;;;;5068173;28;20039;-78
2021/01/26 10:03:36;;;;;;;1.23;1.17;;;7.10;38.50;;;;;;5071244;28;20404;-78
2021/01/26 10:06:01;;;;;;;0.80;0.77;;;7.20;39.50;;;;;;5071389;28;20062;-78
2021/01/26 10:08:32;;;;;;;0.80;0.80;;;7.30;37.60;;;;;;5066153;28;20421;-78
2021/01/26 10:11:13;;;;;;;1.60;1.50;;;7.30;37.40;;;;;;5069818;28;20028;-78
2021/01/26 10:20:44;;;;;;;1.08;0.98;;;7.50;36.80;;;;;;5016812;28;20064;-77
2021/01/26 10:23:13;;;;;;;3.78;1.00;;;7.60;36.70;;;;;;5069643;28;20040;-78
2021/01/26 10:25:42;;;;;;;1.90;1.80;;;7.70;36.80;;;;;;5072285;28;20035;-78
2021/01/26 10:28:19;;;;;;;2.20;1.70;;;7.70;36.10;;;;;;5087397;28;20024;-79
2021/01/26 10:30:47;;;;;;;2.42;1.75;;;7.70;36.10;;;;;;5068722;28;20165;-78
2021/01/26 10:37:12;;;;;;;0.82;0.82;;;7.80;35.80;;;;;;5104015;28;20501;-78
2021/01/26 10:39:41;;;;;;;2.10;0.95;;;7.80;35.00;;;;;;5056554;28;20032;-80
2021/01/26 10:42:20;;;;;;;0.60;0.60;;;7.90;36.10;;;;;;5062672;28;20019;-78
2021/01/26 10:44:53;;;;;;;1.00;0.80;;;7.90;35.60;;;;;;5090720;28;20538;-77
2021/01/26 10:47:32;;;;;;;0.73;0.73;;;8.00;35.60;;;;;;5087236;28;20024;-78
2021/01/26 10:49:59;;;;;;;0.75;0.75;;;8.00;34.80;;;;;;5058065;28;20142;-78
2021/01/26 10:52:42;;;;;;;1.83;1.65;;;8.00;34.70;;;;;;5053680;28;20025;-78
2021/01/26 10:55:11;;;;;;;5.28;3.70;;;8.10;34.50;;;;;;5060912;28;20027;-77
2021/01/26 10:57:39;;;;;;;2.22;2.03;;;8.10;32.80;;;;;;5061187;28;20032;-78
2021/01/26 11:00:10;;;;;;;0.90;0.90;;;8.10;34.70;;;;;;5103205;28;20028;-77
2021/01/26 11:02:35;;;;;;;0.75;0.75;;;8.20;33.70;;;;;;5061699;28;20025;-78
2021/01/26 11:05:02;;;;;;;0.68;0.68;;;8.20;34.50;;;;;;5082156;28;20550;-79
2021/01/26 11:07:28;;;;;;;1.10;1.00;;;8.30;34.20;;;;;;5064276;28;20532;-79
2021/01/26 11:09:54;;;;;;;0.90;0.75;;;8.40;34.00;;;;;;5066163;28;20016;-82
2021/01/26 11:12:20;;;;;;;0.82;0.82;;;8.40;33.60;;;;;;5072845;28;20028;-80
2021/01/26 11:14:48;;;;;;;0.50;0.50;;;8.50;33.00;;;;;;5060225;28;20684;-81
2021/01/26 11:17:15;;;;;;;0.50;0.50;;;8.50;32.40;;;;;;5059765;28;20025;-77
2021/01/26 11:19:44;;;;;;;0.50;0.50;;;8.50;32.50;;;;;;5068011;28;20434;-80
2021/01/26 11:22:17;;;;;;;0.52;0.52;;;8.60;33.00;;;;;;5060563;28;20021;-78
2021/01/26 11:24:43;;;;;;;0.30;0.30;;;8.60;32.90;;;;;;5055849;28;20090;-78
2021/01/26 11:27:10;;;;;;;0.60;0.60;;;8.60;31.60;;;;;;5056206;28;20021;-78
2021/01/26 11:29:36;;;;;;;0.50;0.50;;;8.70;31.90;;;;;;5056104;28;20032;-81
2021/01/26 11:32:02;;;;;;;0.60;0.60;;;8.70;32.60;;;;;;5058316;28;20028;-79
2021/01/26 11:34:28;;;;;;;0.60;0.60;;;8.80;32.30;;;;;;5076237;28;20033;-78
2021/01/26 11:36:54;;;;;;;0.70;0.70;;;8.80;31.20;;;;;;5077945;28;20058;-77
2021/01/26 11:39:23;;;;;;;1.35;1.25;;;8.80;31.40;;;;;;5055288;28;20028;-78
2021/01/26 11:41:51;;;;;;;1.02;0.90;;;8.80;31.40;;;;;;5073582;28;20024;-77
2021/01/26 11:44:17;;;;;;;3.60;1.08;;;8.80;31.00;;;;;;5056567;28;20035;-77
2021/01/26 11:46:43;;;;;;;0.73;0.63;;;8.90;32.50;;;;;;5058464;28;20058;-77
2021/01/26 11:49:09;;;;;;;0.75;0.75;;;8.90;31.70;;;;;;5065374;28;20463;-78
2021/01/26 11:51:37;;;;;;;1.70;1.60;;;9.00;31.80;;;;;;5068884;28;20085;-78
2021/01/26 11:54:03;;;;;;;1.23;1.13;;;8.90;31.40;;;;;;5081097;28;20031;-77
2021/01/26 11:56:29;;;;;;;0.80;0.75;;;9.00;31.70;;;;;;5073497;28;20718;-77
2021/01/26 11:58:54;;;;;;;0.68;0.68;;;9.00;31.40;;;;;;5072107;28;20042;-77
2021/01/26 12:01:20;;;;;;;0.40;0.40;;;9.10;32.00;;;;;;5073569;28;20688;-78
2021/01/26 12:03:46;;;;;;;1.38;1.27;;;9.10;31.20;;;;;;5076063;28;20025;-77
2021/01/26 12:06:12;;;;;;;1.50;1.13;;;9.20;31.50;;;;;;5054168;28;20035;-78
2021/01/26 12:08:38;;;;;;;1.45;1.02;;;9.30;31.60;;;;;;5053095;28;20032;-77
2021/01/26 12:11:05;;;;;;;0.55;0.55;;;9.30;32.00;;;;;;5072775;28;20478;-77
2021/01/26 12:13:32;;;;;;;0.50;0.50;;;9.30;31.60;;;;;;5070334;28;20028;-78
2021/01/26 12:15:58;;;;;;;1.10;1.10;;;9.30;30.40;;;;;;5053731;28;20029;-78
2021/01/26 12:18:24;;;;;;;3.75;3.55;;;9.30;30.90;;;;;;5055291;28;20537;-78
2021/01/26 12:20:49;;;;;;;0.60;0.60;;;9.30;31.00;;;;;;5072872;28;20031;-77
2021/01/26 12:23:15;;;;;;;0.80;0.80;;;9.30;30.40;;;;;;5069915;28;20047;-77
2021/01/26 12:25:41;;;;;;;0.50;0.50;;;9.40;31.00;;;;;;5090284;28;20031;-77
2021/01/26 12:28:08;;;;;;;3.50;0.73;;;9.40;30.30;;;;;;5069991;28;20023;-77
2021/01/26 12:30:34;;;;;;;0.57;0.57;;;9.40;30.70;;;;;;5072115;28;20111;-78
2021/01/26 12:33:00;;;;;;;1.50;0.70;;;9.40;31.40;;;;;;5071196;28;20111;-77
2021/01/26 12:35:29;;;;;;;0.50;0.50;;;9.40;30.40;;;;;;5082562;28;20077;-77
2021/01/26 12:37:56;;;;;;;0.50;0.50;;;9.40;30.80;;;;;;5087821;28;20024;-77
2021/01/26 12:40:22;;;;;;;0.73;0.70;;;9.40;30.80;;;;;;5064942;28;20020;-76
2021/01/26 12:42:48;;;;;;;1.17;1.02;;;9.40;31.60;;;;;;5070401;28;20858;-78
2021/01/26 12:45:18;;;;;;;0.95;0.60;;;9.40;31.60;;;;;;5071669;28;20020;-78
2021/01/26 12:47:50;;;;;;;0.70;0.60;;;9.50;31.10;;;;;;5089721;28;20023;-77
2021/01/26 12:50:19;;;;;;;0.40;0.40;;;9.50;31.70;;;;;;5069622;28;20039;-77
2021/01/26 12:52:45;;;;;;;0.82;0.77;;;9.50;32.00;;;;;;5065267;28;20760;-77
2021/01/26 12:55:11;;;;;;;0.88;0.88;;;9.50;32.30;;;;;;5070058;28;20042;-77
2021/01/26 12:57:36;;;;;;;1.10;1.00;;;9.60;32.10;;;;;;5088326;28;20060;-77
2021/01/26 13:00:07;;;;;;;0.73;0.70;;;9.60;32.70;;;;;;5089450;28;20066;-77
2021/01/26 13:02:33;;;;;;;0.70;0.70;;;9.50;31.60;;;;;;5090053;28;20122;-77
2021/01/26 13:04:59;;;;;;;0.43;0.43;;;9.50;32.10;;;;;;5071461;28;20426;-77
2021/01/26 13:07:25;;;;;;;0.68;0.68;;;9.40;33.70;;;;;;5073028;28;20067;-77
2021/01/26 13:09:51;;;;;;;0.80;0.80;;;9.40;32.30;;;;;;5071907;28;20113;-77
2021/01/26 13:12:20;;;;;;;0.40;0.40;;;9.40;33.30;;;;;;5090342;28;20021;-77
2021/01/26 13:14:49;;;;;;;0.70;0.70;;;9.40;31.40;;;;;;5073076;28;20383;-77
2021/01/26 13:17:18;;;;;;;0.60;0.60;;;9.40;31.40;;;;;;5090557;28;20073;-77
2021/01/26 13:19:43;;;;;;;0.88;0.82;;;9.30;31.90;;;;;;5090151;28;20024;-77
2021/01/26 13:22:09;;;;;;;1.30;0.73;;;9.30;32.60;;;;;;5073438;28;20023;-77
2021/01/26 13:24:35;;;;;;;0.47;0.47;;;9.30;32.50;;;;;;5079098;28;20047;-77
2021/01/26 13:27:04;;;;;;;2.35;0.30;;;9.30;33.90;;;;;;5070822;28;20016;-77
2021/01/26 13:29:33;;;;;;;0.50;0.50;;;9.30;33.30;;;;;;5082626;28;20559;-77
2021/01/26 13:31:59;;;;;;;0.60;0.60;;;9.20;33.40;;;;;;5070780;28;20020;-77
2021/01/26 13:34:25;;;;;;;1.13;0.70;;;9.20;33.50;;;;;;5068285;28;20173;-77
2021/01/26 13:36:54;;;;;;;0.95;0.95;;;9.20;34.00;;;;;;5086459;28;20031;-77
2021/01/26 13:39:20;;;;;;;1.00;0.93;;;9.20;33.30;;;;;;5087676;28;20394;-77
2021/01/26 13:41:49;;;;;;;1.40;1.30;;;9.10;33.80;;;;;;5086939;28;20024;-78